• Join FlightAware (Why Join?)
  • Login
  • US Flag 
05:41AM EDT


 

Airport Tracker/Info


-or-


 

Live Flight TrackerFlight Track Log ✈ USC110 ✈ 28-Jul-2013 ✈ KSUS - KFTY

Flight Track Log - Related Links

Times and Time Zones

All times are in EDT time to prevent confusion due to time zone crossing. See the USC110 flight status page for this flight to view local times or setup timezone preferences in your user account.

Time Position Orientation Groundspeed Altitude Reporting Facility
EDT Latitude Longitude Course Direction KTS MPH feet Rate Location/Type
01:13PM 38.6500 -90.6667 218° Southwest 89 102 1,100  Level Gateway (St. Louis) TRACON
01:14PM 38.6333 -90.6833 218° Southwest 108 124 1,800 660 Climbing Gateway (St. Louis) TRACON
01:15PM 38.6044 -90.6967 200° South 107 123 2,400 780 Climbing Kansas City Center
01:16PM 38.5756 -90.6972 181° South 108 124 3,300 720 Climbing Kansas City Center
01:17PM 38.5453 -90.6864 164° South 112 129 4,000 780 Climbing Kansas City Center
01:18PM 38.5119 -90.6594 148° Southeast 115 132 5,000 840 Climbing Kansas City Center
01:19PM 38.4867 -90.6292 137° Southeast 120 138 5,800 720 Climbing Kansas City Center
01:20PM 38.4608 -90.5964 135° Southeast 126 145 6,600 720 Climbing Kansas City Center
01:21PM 38.4325 -90.5628 137° Southeast 132 152 7,300 720 Climbing Kansas City Center
01:22PM 38.4072 -90.5269 132° Southeast 137 158 8,100 660 Climbing Kansas City Center
01:23PM 38.3806 -90.4911 134° Southeast 140 161 8,700 420 Climbing Kansas City Center
01:24PM 38.3464 -90.4447 133° Southeast 148 170 9,000 120 Climbing Kansas City Center
01:25PM 38.3083 -90.3986 136° Southeast 177 204 9,000  Level Kansas City Center
01:26PM 38.2689 -90.3503 136° Southeast 194 223 9,000  Level Kansas City Center
01:27PM 38.2308 -90.3025 135° Southeast 195 224 9,000  Level Kansas City Center
01:28PM 38.1911 -90.2544 136° Southeast 196 226 9,000  Level Kansas City Center
01:29PM 38.1425 -90.1958 137° Southeast 201 231 9,000  Level Kansas City Center
01:30PM 38.1033 -90.1436 134° Southeast 204 235 9,000  Level Kansas City Center
01:31PM 38.0633 -90.0944 136° Southeast 202 232 9,000  Level Kansas City Center
01:32PM 38.0186 -90.0394 136° Southeast 199 229 9,000  Level Kansas City Center
01:33PM 37.9789 -89.9897 135° Southeast 201 231 9,000  Level Kansas City Center
01:34PM 37.9361 -89.9375 136° Southeast 199 229 9,000  Level Kansas City Center
01:35PM 37.8967 -89.8897 136° Southeast 198 228 9,000  Level Kansas City Center
01:36PM 37.8550 -89.8394 136° Southeast 195 224 9,000  Level Kansas City Center
01:37PM 37.8186 -89.7922 134° Southeast 201 231 9,000  Level Kansas City Center
01:38PM 37.7792 -89.7453 137° Southeast 198 228 9,000  Level Kansas City Center
01:40PM 37.7375 -89.6961 137° Southeast 201 231 9,000  Level Kansas City Center
01:41PM 37.6964 -89.6469 137° Southeast 204 235 9,000  Level Kansas City Center
01:42PM 37.6486 -89.5847 134° Southeast 206 237 9,000  Level Kansas City Center
01:43PM 37.6067 -89.5358 137° Southeast 205 236 9,000  Level Kansas City Center
01:44PM 37.5608 -89.4822 137° Southeast 205 236 9,000  Level Kansas City Center
01:45PM 37.5194 -89.4322 136° Southeast 205 236 9,000  Level Kansas City Center
01:46PM 37.4783 -89.3817 136° Southeast 205 236 9,000  Level Kansas City Center
01:47PM 37.4378 -89.3325 136° Southeast 203 234 9,000  Level Kansas City Center
01:48PM 37.3961 -89.2839 137° Southeast 204 235 9,000  Level Kansas City Center
01:49PM 37.3547 -89.2350 137° Southeast 203 234 9,000  Level Kansas City Center
01:50PM 37.3144 -89.1853 136° Southeast 203 234 9,000  Level Kansas City Center
01:51PM 37.2658 -89.1275 137° Southeast 201 231 9,000  Level Kansas City Center
01:52PM 37.2239 -89.0803 138° Southeast 201 231 9,000  Level Kansas City Center
01:53PM 37.1839 -89.0322 136° Southeast 200 230 9,000  Level Kansas City Center
01:54PM 37.1428 -88.9833 137° Southeast 201 231 9,000  Level Kansas City Center
01:55PM 37.1022 -88.9358 137° Southeast 201 231 9,000  Level Kansas City Center
01:56PM 37.0619 -88.8881 137° Southeast 200 230 9,000 -60 Level Kansas City Center
01:57PM 37.0225 -88.8419 137° Southeast 200 230 8,900  Descending Memphis Center
01:58PM 36.9825 -88.7961 138° Southeast 200 230 9,000  Climbing Memphis Center
01:59PM 36.9422 -88.7475 136° Southeast 195 224 9,000 -60 Level Memphis Center
02:00PM 36.9019 -88.7017 138° Southeast 195 224 8,900  Descending Memphis Center
02:01PM 36.8639 -88.6533 135° Southeast 195 224 9,000  Climbing Memphis Center
02:02PM 36.8236 -88.6075 138° Southeast 195 224 9,000  Level Memphis Center
02:03PM 36.7833 -88.5592 136° Southeast 195 224 9,000 -60 Level Memphis Center
02:04PM 36.7453 -88.5133 136° Southeast 195 224 8,900 -60 Descending Memphis Center
02:05PM 36.7028 -88.4653 138° Southeast 195 224 8,900  Level Memphis Center
02:06PM 36.6644 -88.4219 138° Southeast 195 224 9,000  Climbing Memphis Center
02:07PM 36.6242 -88.3739 136° Southeast 195 224 9,000 -60 Level Memphis Center
02:08PM 36.5817 -88.3258 138° Southeast 195 224 8,900  Descending Memphis Center
02:09PM 36.5414 -88.2778 136° Southeast 195 224 9,000  Climbing Memphis Center
02:10PM 36.5031 -88.2322 136° Southeast 195 224 9,000 -60 Level Memphis Center
02:11PM 36.4625 -88.1792 134° Southeast 200 230 8,900 -60 Descending Memphis Center
02:12PM 36.4239 -88.1183 128° Southeast 200 230 8,900  Level Memphis Center
02:13PM 36.3919 -88.0728 131° Southeast 200 230 8,900  Level Memphis Center
02:14PM 36.3575 -88.0172 128° Southeast 205 236 8,900  Level Memphis Center
02:15PM 36.3231 -87.9639 129° Southeast 205 236 8,900  Level Memphis Center
02:16PM 36.2867 -87.9111 131° Southeast 198 228 8,900  Level Memphis Center
02:17PM 36.2500 -87.8556 129° Southeast 203 234 8,900  Level Memphis Center
02:18PM 36.2178 -87.8050 128° Southeast 203 234 9,000  Climbing Memphis Center
02:19PM 36.1811 -87.7494 129° Southeast 203 234 9,000 -60 Level Memphis Center
02:20PM 36.1444 -87.6917 128° Southeast 203 234 8,900  Descending Memphis Center
02:21PM 36.1058 -87.6389 132° Southeast 203 234 9,000  Climbing Memphis Center
02:22PM 36.0714 -87.5861 129° Southeast 198 228 8,900 -60 Descending Memphis Center
02:23PM 36.0367 -87.5333 129° Southeast 198 228 8,900  Level Memphis Center
02:24PM 36.0000 -87.4783 129° Southeast 198 228 8,900  Level Memphis Center
02:25PM 35.9653 -87.4256 129° Southeast 203 234 9,000  Climbing Memphis Center
02:26PM 35.9308 -87.3731 129° Southeast 203 234 8,900  Descending Memphis Center
02:27PM 35.8961 -87.3206 129° Southeast 198 228 9,000  Climbing Memphis Center
02:28PM 35.8614 -87.2681 129° Southeast 198 228 9,000  Level Memphis Center
02:29PM 35.8269 -87.2181 130° Southeast 207 238 9,000 -60 Level Memphis Center
02:30PM 35.7944 -87.1681 129° Southeast 202 232 8,900  Descending Memphis Center
02:31PM 35.7597 -87.1158 129° Southeast 196 226 9,000  Climbing Memphis Center
02:32PM 35.7292 -87.0708 130° Southeast 191 220 8,900  Descending Memphis Center
02:33PM 35.6944 -87.0211 131° Southeast 191 220 9,000  Climbing Memphis Center
02:34PM 35.6619 -86.9714 129° Southeast 191 220 8,900 -60 Descending Memphis Center
02:35PM 35.6250 -86.9219 133° Southeast 191 220 8,900  Level Memphis Center
02:36PM 35.5922 -86.8694 128° Southeast 191 220 8,900  Level Memphis Center
02:37PM 35.5597 -86.8200 129° Southeast 191 220 9,000  Climbing Memphis Center
02:38PM 35.5250 -86.7703 131° Southeast 191 220 8,900  Descending Memphis Center
02:39PM 35.4858 -86.7161 132° Southeast 191 220 9,000  Climbing Memphis Center
02:40PM 35.4531 -86.6664 129° Southeast 191 220 8,900 -60 Descending Memphis Center
02:41PM 35.4203 -86.6169 129° Southeast 191 220 8,900  Level Memphis Center
02:42PM 35.3853 -86.5625 128° Southeast 191 220 9,000  Climbing Memphis Center
02:43PM 35.3503 -86.5131 131° Southeast 191 220 9,000 -60 Level Memphis Center
02:44PM 35.3153 -86.4639 131° Southeast 191 220 8,900  Descending Memphis Center
02:45PM 35.2828 -86.4172 130° Southeast 191 220 9,000  Climbing Memphis Center
02:46PM 35.2497 -86.3653 128° Southeast 186 214 9,000  Level Memphis Center
02:47PM 35.2128 -86.3161 133° Southeast 186 214 9,000 -60 Level Memphis Center
02:48PM 35.1797 -86.2644 128° Southeast 191 220 8,900 -60 Descending Memphis Center
02:49PM 35.1492 -86.2228 132° Southeast 191 220 8,900  Level Memphis Center
02:50PM 35.1136 -86.1611 125° Southeast 196 226 9,000  Climbing Memphis Center
02:51PM 35.0786 -86.1147 133° Southeast 196 226 8,900  Descending Memphis Center
02:52PM 35.0456 -86.0631 128° Southeast 196 226 9,000  Climbing Memphis Center
02:53PM 35.0106 -86.0167 133° Southeast 196 226 9,000  Level Memphis Center
02:54PM 34.9756 -85.9653 130° Southeast 196 226 9,000  Level Memphis Center
02:55PM 34.9403 -85.9164 131° Southeast 191 220 9,000  Level Memphis Center
02:56PM 34.9053 -85.8675 131° Southeast 191 220 9,000  Level Memphis Center
02:57PM 34.8742 -85.8186 128° Southeast 191 220 9,000  Level Memphis Center
02:58PM 34.8389 -85.7675 130° Southeast 191 220 9,000  Level Memphis Center
02:59PM 34.8039 -85.7214 133° Southeast 186 214 9,000  Level Memphis Center
03:00PM 34.7686 -85.6722 131° Southeast 190 219 9,000  Level Atlanta Center
03:01PM 34.7336 -85.6236 131° Southeast 190 219 9,000  Level Atlanta Center
03:02PM 34.6989 -85.5722 129° Southeast 190 219 9,000  Level Atlanta Center
03:03PM 34.6661 -85.5239 129° Southeast 185 213 9,000  Level Atlanta Center
03:04PM 34.6311 -85.4778 133° Southeast 185 213 9,000  Level Atlanta Center
03:05PM 34.5964 -85.4242 128° Southeast 185 213 9,000  Level Atlanta Center
03:06PM 34.5614 -85.3781 133° Southeast 185 213 9,000  Level Atlanta Center
03:07PM 34.5283 -85.3322 131° Southeast 185 213 9,000  Level Atlanta Center
03:08PM 34.4933 -85.2839 131° Southeast 185 213 9,000  Level Atlanta Center
03:09PM 34.4606 -85.2356 129° Southeast 185 213 9,000  Level Atlanta Center
03:10PM 34.4256 -85.1872 131° Southeast 185 213 9,000  Level Atlanta Center
03:11PM 34.3947 -85.1414 129° Southeast 185 213 9,000  Level Atlanta Center
03:12PM 34.3575 -85.0906 132° Southeast 185 213 9,000  Level Atlanta Center
03:13PM 34.3244 -85.0450 131° Southeast 185 213 9,000 -240 Level Atlanta Center
03:14PM 34.2853 -84.9917 132° Southeast 185 213 8,600 -420 Descending Atlanta Center
03:15PM 34.2481 -84.9383 130° Southeast 192 221 8,200 -300 Descending Atlanta Center
03:16PM 34.2150 -84.8903 130° Southeast 192 221 8,000 -120 Descending Atlanta Center
03:17PM 34.1756 -84.8472 138° Southeast 192 221 8,000 -240 Level Atlanta Center
03:18PM 34.1383 -84.8017 135° Southeast 192 221 7,600 -540 Descending Atlanta Center
03:19PM 34.0989 -84.7564 136° Southeast 192 221 7,000 -660 Descending Atlanta Center
03:20PM 34.0575 -84.7083 136° Southeast 192 221 6,300 -780 Descending Atlanta Center
03:21PM 34.0181 -84.6628 136° Southeast 198 228 5,500 -840 Descending Atlanta Center
03:22PM 33.9808 -84.6175 135° Southeast 198 228 4,700 -780 Descending Atlanta Center
03:23PM 33.9433 -84.5747 137° Southeast 193 222 4,000 -600 Descending Atlanta Center
03:24PM 33.9061 -84.5319 136° Southeast 193 222 3,500 -480 Descending Atlanta Center
03:25PM 33.8667 -84.4833 134° Southeast 170 196 3,000 -600 Descending Atlanta TRACON
03:26PM 33.8167 -84.4667 165° South 175 201 2,200 -840 Descending Atlanta TRACON